createdAt,value
2022-10-18T00:01:00.381Z,24.59
2022-10-18T00:03:27.563Z,24.62
2022-10-18T00:05:54.880Z,24.67
2022-10-18T00:08:22.493Z,24.64
2022-10-18T00:10:51.368Z,24.66
2022-10-18T00:13:18.958Z,24.65
2022-10-18T00:15:50.548Z,24.66
2022-10-18T00:18:17.668Z,24.71
2022-10-18T00:20:44.888Z,24.70
2022-10-18T00:23:11.989Z,24.71
2022-10-18T00:25:39.069Z,24.61
2022-10-18T00:28:07.606Z,24.52
2022-10-18T00:30:34.707Z,24.63
2022-10-18T00:33:01.812Z,24.55
2022-10-18T00:35:29.070Z,24.46
2022-10-18T00:37:56.106Z,24.40
2022-10-18T00:40:23.187Z,24.34
2022-10-18T00:42:50.227Z,24.28
2022-10-18T00:45:22.166Z,24.18
2022-10-18T00:47:55.747Z,24.20
2022-10-18T00:50:25.267Z,24.17
2022-10-18T00:52:57.107Z,24.17
2022-10-18T00:55:25.448Z,24.16
2022-10-18T01:00:23.809Z,24.06
2022-10-18T01:02:51.928Z,24.03
2022-10-18T01:05:20.930Z,23.98
2022-10-18T01:08:19.206Z,23.89
2022-10-18T01:10:55.509Z,23.86
2022-10-18T01:13:37.748Z,23.80
2022-10-18T01:16:17.306Z,23.75
2022-10-18T01:18:51.846Z,23.66
2022-10-18T01:21:33.247Z,23.61
2022-10-18T01:24:38.127Z,23.60
2022-10-18T01:27:49.389Z,23.65
2022-10-18T01:30:48.304Z,23.64
2022-10-18T01:33:30.486Z,23.67
2022-10-18T01:36:05.924Z,23.61
2022-10-18T01:38:37.025Z,23.70
2022-10-18T01:41:11.759Z,23.73
2022-10-18T01:43:46.624Z,23.75
2022-10-18T01:46:20.245Z,23.74
2022-10-18T01:48:48.364Z,23.71
2022-10-18T01:51:15.485Z,23.68
2022-10-18T01:53:42.524Z,23.62
2022-10-18T01:56:29.945Z,23.57
2022-10-18T01:59:29.287Z,23.49
2022-10-18T02:02:10.124Z,23.47
2022-10-18T02:04:47.146Z,23.41
2022-10-18T02:07:26.865Z,23.35
2022-10-18T02:10:04.400Z,23.33
2022-10-18T02:12:34.926Z,23.31
2022-10-18T02:15:06.266Z,23.29
2022-10-18T02:17:35.804Z,23.27
2022-10-18T02:20:08.609Z,23.31
2022-10-18T02:22:39.146Z,23.32
2022-10-18T02:25:11.831Z,23.28
2022-10-18T02:27:38.884Z,23.23
2022-10-18T02:30:07.417Z,23.19
2022-10-18T02:32:43.425Z,23.10
2022-10-18T02:35:20.466Z,23.06
2022-10-18T02:37:50.415Z,23.02
2022-10-18T02:40:18.445Z,23.03
2022-10-18T02:42:49.144Z,23.05
2022-10-18T02:45:17.367Z,23.06
2022-10-18T02:47:46.267Z,23.08
2022-10-18T02:50:14.268Z,23.10
2022-10-18T02:52:41.326Z,23.11
2022-10-18T02:55:09.967Z,23.09
2022-10-18T02:57:37.106Z,23.06
2022-10-18T03:00:06.004Z,23.05
2022-10-18T03:02:33.246Z,23.08
2022-10-18T03:05:01.849Z,23.50
2022-10-18T03:07:29.088Z,23.75
2022-10-18T03:09:56.285Z,23.74
2022-10-18T03:12:23.325Z,23.74
2022-10-18T03:14:50.322Z,23.73
2022-10-18T03:17:17.383Z,23.77
2022-10-18T03:19:44.442Z,23.70
2022-10-18T03:22:12.963Z,23.76
2022-10-18T03:24:40.026Z,23.77
2022-10-18T03:27:07.122Z,23.89
2022-10-18T03:29:34.161Z,23.86
2022-10-18T03:32:01.180Z,23.90
2022-10-18T03:34:28.205Z,23.94
2022-10-18T03:36:55.241Z,23.82
2022-10-18T03:39:23.827Z,23.81
2022-10-18T03:41:50.808Z,23.72
2022-10-18T03:44:17.865Z,23.68
2022-10-18T03:46:44.885Z,23.67
2022-10-18T03:49:11.966Z,23.60
2022-10-18T03:51:38.965Z,23.57
2022-10-18T03:54:06.026Z,23.49
2022-10-18T03:56:34.607Z,23.47
2022-10-18T03:59:01.666Z,23.51
2022-10-18T04:01:28.812Z,23.62
2022-10-18T04:03:56.165Z,23.72
2022-10-18T04:06:23.247Z,23.78
2022-10-18T04:08:50.305Z,23.77
2022-10-18T04:11:17.406Z,23.64
2022-10-18T04:13:45.885Z,23.54
2022-10-18T04:16:12.885Z,23.45
2022-10-18T04:18:40.006Z,23.46
2022-10-18T04:21:07.285Z,23.39
2022-10-18T04:23:37.924Z,23.38
2022-10-18T04:26:06.586Z,23.31
2022-10-18T04:28:34.424Z,23.30
2022-10-18T04:31:03.045Z,23.31
2022-10-18T04:33:30.106Z,23.40
2022-10-18T04:35:57.165Z,23.47
2022-10-18T04:38:24.210Z,23.43
2022-10-18T04:40:51.367Z,23.46
2022-10-18T04:43:18.830Z,23.38
2022-10-18T04:45:45.946Z,23.40
2022-10-18T04:48:14.784Z,23.34
2022-10-18T04:50:41.845Z,23.33
2022-10-18T04:53:08.906Z,23.34
2022-10-18T04:55:36.048Z,23.32
2022-10-18T04:58:03.086Z,23.35
2022-10-18T05:00:30.089Z,23.32
2022-10-18T05:02:57.746Z,23.37
2022-10-18T05:05:43.252Z,23.41
2022-10-18T05:08:13.705Z,23.36
2022-10-18T05:10:41.029Z,23.40
2022-10-18T05:13:08.089Z,23.41
2022-10-18T05:15:35.168Z,23.33
2022-10-18T05:18:02.244Z,23.30
2022-10-18T05:20:30.908Z,23.28
2022-10-18T05:22:58.244Z,23.29
2022-10-18T05:25:25.405Z,23.27
2022-10-18T05:27:52.406Z,23.23
2022-10-18T05:30:19.466Z,23.20
2022-10-18T05:32:46.530Z,23.15
2022-10-18T05:35:13.566Z,23.19
2022-10-18T05:37:42.086Z,23.27
2022-10-18T05:40:10.614Z,23.28
2022-10-18T05:42:37.585Z,23.26
2022-10-18T05:45:05.408Z,23.27
2022-10-18T05:47:32.537Z,23.28
2022-10-18T05:49:59.607Z,23.27
2022-10-18T05:52:26.628Z,23.30
2022-10-18T05:54:55.126Z,23.34
2022-10-18T05:57:22.169Z,23.34
2022-10-18T05:59:49.246Z,23.25
2022-10-18T06:02:16.358Z,23.26
2022-10-18T06:04:43.491Z,23.26
2022-10-18T06:07:11.847Z,23.28
2022-10-18T06:09:39.347Z,23.49
2022-10-18T06:12:07.916Z,23.83
2022-10-18T06:14:35.181Z,24.05
2022-10-18T06:17:02.228Z,24.22
2022-10-18T06:19:29.374Z,24.40
2022-10-18T06:21:56.449Z,24.34
2022-10-18T06:24:23.567Z,24.22
2022-10-18T06:26:50.607Z,24.14
2022-10-18T06:29:19.066Z,24.02
2022-10-18T06:31:46.166Z,23.97
2022-10-18T06:34:13.246Z,23.85
2022-10-18T06:36:40.306Z,23.82
2022-10-18T06:39:07.426Z,23.81
2022-10-18T06:41:34.516Z,23.97
2022-10-18T06:44:01.547Z,24.16
2022-10-18T06:46:30.152Z,24.31
2022-10-18T06:48:57.308Z,24.44
2022-10-18T06:51:24.385Z,24.65
2022-10-18T06:54:06.326Z,24.80
2022-10-18T06:56:39.507Z,24.93
2022-10-18T06:59:06.628Z,25.13
2022-10-18T07:01:35.142Z,25.46
2022-10-18T07:04:02.211Z,25.65
2022-10-18T07:06:29.287Z,25.77
2022-10-18T07:08:56.387Z,25.60
2022-10-18T07:11:26.249Z,25.63
2022-10-18T07:13:54.926Z,25.78
2022-10-18T07:16:22.322Z,25.87
2022-10-18T07:18:51.886Z,25.97
2022-10-18T07:21:20.862Z,25.88
2022-10-18T07:23:48.486Z,26.09
2022-10-18T07:26:18.507Z,26.11
2022-10-18T07:28:48.161Z,26.19
2022-10-18T07:31:16.206Z,26.17
2022-10-18T07:33:43.287Z,26.34
2022-10-18T07:36:13.648Z,26.35
2022-10-18T07:38:41.893Z,26.12
2022-10-18T07:41:12.218Z,25.96
2022-10-18T07:43:43.026Z,25.82
2022-10-18T07:46:10.046Z,25.91
2022-10-18T07:48:37.146Z,26.30
2022-10-18T07:51:05.329Z,26.44
2022-10-18T07:53:33.927Z,26.73
2022-10-18T07:56:04.556Z,27.04
2022-10-18T07:58:34.746Z,27.26
2022-10-18T08:01:03.287Z,27.37
2022-10-18T08:03:30.447Z,27.36
2022-10-18T08:05:57.705Z,27.59
2022-10-18T08:08:26.107Z,27.85
2022-10-18T08:10:54.947Z,28.00
2022-10-18T08:13:22.665Z,28.15
2022-10-18T08:15:49.745Z,28.21
2022-10-18T08:18:16.907Z,28.31
2022-10-18T08:20:44.556Z,28.50
2022-10-18T08:23:11.712Z,28.71
2022-10-18T08:25:39.090Z,28.86
2022-10-18T08:28:08.222Z,28.87
2022-10-18T08:30:36.367Z,29.02
2022-10-18T08:33:03.586Z,29.11
2022-10-18T08:35:30.911Z,29.26
2022-10-18T08:37:58.228Z,29.24
2022-10-18T08:40:26.225Z,29.21
2022-10-18T08:43:12.867Z,29.27
2022-10-18T08:45:42.744Z,29.43
2022-10-18T08:48:21.388Z,29.54
2022-10-18T08:50:51.509Z,29.61
2022-10-18T08:53:27.914Z,29.48
2022-10-18T08:56:03.747Z,29.49
2022-10-18T08:58:33.351Z,29.55
2022-10-18T09:01:12.087Z,29.62
2022-10-18T09:03:57.593Z,29.70
2022-10-18T09:06:33.987Z,29.46
2022-10-18T09:09:17.547Z,29.26
2022-10-18T09:12:02.196Z,29.53
2022-10-18T09:15:08.405Z,29.56
2022-10-18T09:17:48.546Z,29.77
2022-10-18T09:20:24.594Z,29.77
2022-10-18T09:22:55.410Z,29.80
2022-10-18T09:25:25.446Z,29.90
2022-10-18T09:27:55.626Z,29.94
2022-10-18T09:30:41.426Z,29.74
2022-10-18T09:33:27.948Z,29.49
2022-10-18T09:35:59.265Z,29.86
2022-10-18T09:38:32.466Z,30.04
2022-10-18T09:41:06.706Z,30.21
2022-10-18T09:43:49.914Z,30.37
2022-10-18T09:46:22.086Z,30.22
2022-10-18T09:48:56.058Z,30.51
2022-10-18T09:51:29.665Z,30.53
2022-10-18T09:54:13.986Z,30.37
2022-10-18T09:56:48.593Z,30.19
2022-10-18T09:59:34.169Z,30.36
2022-10-18T10:02:03.555Z,30.44
2022-10-18T10:04:30.715Z,30.26
2022-10-18T10:07:01.005Z,30.23
2022-10-18T10:09:30.551Z,30.32
2022-10-18T10:11:58.692Z,30.49
2022-10-18T10:14:27.989Z,30.68
2022-10-18T10:16:58.692Z,30.63
2022-10-18T10:19:32.328Z,30.69
2022-10-18T10:22:05.752Z,30.59
2022-10-18T10:24:48.413Z,30.64
2022-10-18T10:27:20.148Z,30.65
2022-10-18T10:30:04.147Z,30.56
2022-10-18T10:32:47.071Z,30.47
2022-10-18T10:35:42.151Z,30.65
2022-10-18T10:38:24.781Z,30.74
2022-10-18T10:40:52.149Z,30.73
2022-10-18T10:43:40.122Z,30.79
2022-10-18T10:46:10.469Z,30.92
2022-10-18T10:48:47.989Z,30.92
2022-10-18T10:51:28.129Z,30.70
2022-10-18T10:54:03.907Z,30.53
2022-10-18T10:56:34.041Z,30.52
2022-10-18T10:59:10.462Z,30.79
2022-10-18T11:01:37.630Z,30.89
2022-10-18T11:04:25.608Z,30.63
2022-10-18T11:07:04.867Z,30.37
2022-10-18T11:09:56.445Z,30.16
2022-10-18T11:12:32.980Z,30.03
2022-10-18T11:15:17.427Z,29.99
2022-10-18T11:17:58.389Z,30.03
2022-10-18T11:20:32.205Z,30.16
2022-10-18T11:23:03.663Z,30.10
2022-10-18T11:25:58.912Z,30.09
2022-10-18T11:28:45.745Z,30.29
2022-10-18T11:31:24.069Z,30.37
2022-10-18T11:34:16.028Z,30.26
2022-10-18T11:36:56.103Z,30.02
2022-10-18T11:39:54.889Z,30.14
2022-10-18T11:42:39.987Z,30.09
2022-10-18T11:45:26.600Z,30.19
2022-10-18T11:48:05.588Z,30.16
2022-10-18T11:50:42.961Z,29.84
2022-10-18T11:53:24.988Z,29.34
2022-10-18T11:56:08.429Z,29.54
2022-10-18T11:58:55.329Z,29.31
2022-10-18T12:01:33.102Z,29.58
2022-10-18T12:04:10.429Z,29.71
2022-10-18T12:06:40.928Z,29.50
2022-10-18T12:09:20.009Z,29.65
2022-10-18T12:11:55.798Z,29.61
2022-10-18T12:14:27.276Z,29.68
2022-10-18T12:17:26.464Z,29.68
2022-10-18T12:19:51.891Z,29.79
2022-10-18T12:22:25.903Z,29.78
2022-10-18T12:24:53.067Z,29.64
2022-10-18T12:27:36.790Z,29.50
2022-10-18T12:30:14.456Z,29.38
2022-10-18T12:32:56.390Z,29.37
2022-10-18T12:35:41.529Z,29.27
2022-10-18T12:38:21.668Z,29.09
2022-10-18T12:40:54.807Z,29.25
2022-10-18T12:43:27.289Z,29.31
2022-10-18T12:45:57.145Z,29.31
2022-10-18T12:48:36.337Z,29.25
2022-10-18T12:51:12.706Z,29.29
2022-10-18T12:53:40.748Z,29.33
2022-10-18T12:56:35.129Z,29.34
2022-10-18T12:59:50.046Z,29.29
2022-10-18T13:02:31.955Z,28.98
2022-10-18T13:05:00.771Z,29.17
2022-10-18T13:07:39.650Z,29.09
2022-10-18T13:10:40.189Z,28.94
2022-10-18T13:13:39.041Z,28.94
2022-10-18T13:16:21.173Z,28.99
2022-10-18T13:18:54.509Z,28.97
2022-10-18T13:21:40.376Z,28.94
2022-10-18T13:24:23.998Z,28.79
2022-10-18T13:27:31.436Z,28.75
2022-10-18T13:30:38.368Z,28.69
2022-10-18T13:33:31.832Z,28.61
2022-10-18T13:36:05.368Z,28.64
2022-10-18T13:38:48.562Z,28.62
2022-10-18T13:41:18.701Z,28.63
2022-10-18T13:44:10.897Z,28.57
2022-10-18T13:47:19.467Z,28.48
2022-10-18T13:50:09.790Z,28.46
2022-10-18T13:53:07.809Z,28.42
2022-10-18T13:55:55.789Z,28.36
2022-10-18T13:58:48.967Z,28.36
2022-10-18T14:01:33.453Z,28.40
2022-10-18T14:05:11.164Z,28.36
2022-10-18T14:07:51.617Z,28.33
2022-10-18T14:10:43.242Z,28.33
2022-10-18T14:13:22.869Z,28.30
2022-10-18T14:15:54.748Z,28.25
2022-10-18T14:18:31.450Z,28.33
2022-10-18T14:21:14.058Z,28.15
2022-10-18T14:23:46.187Z,28.14
2022-10-18T14:26:16.807Z,28.20
2022-10-18T14:28:59.583Z,28.24
2022-10-18T14:31:28.188Z,28.36
2022-10-18T14:33:58.904Z,28.34
2022-10-18T14:36:29.655Z,28.26
2022-10-18T14:39:00.711Z,28.22
2022-10-18T14:41:29.949Z,28.19
2022-10-18T14:44:17.888Z,28.10
2022-10-18T14:46:47.368Z,28.17
2022-10-18T14:49:16.269Z,28.08
2022-10-18T14:51:46.568Z,28.07
2022-10-18T14:54:18.169Z,27.92
2022-10-18T14:56:46.247Z,27.91
2022-10-18T14:59:18.815Z,27.93
2022-10-18T15:01:56.691Z,27.86
2022-10-18T15:04:28.536Z,27.83
2022-10-18T15:06:56.991Z,27.81
2022-10-18T15:09:29.891Z,27.79
2022-10-18T15:11:58.161Z,27.79
2022-10-18T15:14:28.820Z,27.77
2022-10-18T15:17:01.781Z,27.74
2022-10-18T15:19:32.068Z,27.75
2022-10-18T15:25:11.503Z,27.74
2022-10-18T15:27:43.595Z,27.75
2022-10-18T15:30:24.325Z,27.70
2022-10-18T15:32:54.549Z,27.69
2022-10-18T15:35:26.477Z,27.68
2022-10-18T15:37:55.867Z,27.61
2022-10-18T15:40:39.148Z,27.67
2022-10-18T15:43:36.070Z,27.65
2022-10-18T15:46:06.509Z,27.64
2022-10-18T15:48:37.522Z,27.62
2022-10-18T15:51:07.141Z,27.58
2022-10-18T15:53:50.402Z,27.58
2022-10-18T15:56:35.887Z,27.60
2022-10-18T15:59:06.325Z,27.61
2022-10-18T16:01:44.531Z,27.62
2022-10-18T16:04:18.797Z,27.62
2022-10-18T16:06:46.007Z,27.64
2022-10-18T16:09:17.144Z,27.61
2022-10-18T16:11:46.061Z,27.61
2022-10-18T16:14:13.744Z,27.61
2022-10-18T16:16:40.861Z,27.64
2022-10-18T16:19:08.373Z,27.90
2022-10-18T16:21:38.043Z,28.00
2022-10-18T16:24:06.564Z,28.07
2022-10-18T16:26:34.962Z,28.05
2022-10-18T16:29:05.197Z,28.06
2022-10-18T16:31:34.926Z,28.03
2022-10-18T16:34:02.040Z,28.01
2022-10-18T16:36:31.789Z,27.79
2022-10-18T16:39:02.766Z,27.66
2022-10-18T16:41:29.947Z,27.49
2022-10-18T16:43:57.004Z,27.39
2022-10-18T16:46:28.106Z,27.28
2022-10-18T16:48:55.944Z,27.17
2022-10-18T16:51:24.086Z,27.07
2022-10-18T16:53:51.944Z,27.01
2022-10-18T16:56:22.549Z,26.92
2022-10-18T16:58:49.709Z,26.80
2022-10-18T17:01:19.175Z,26.73
2022-10-18T17:03:48.774Z,26.66
2022-10-18T17:06:18.280Z,26.59
2022-10-18T17:08:45.741Z,26.49
2022-10-18T17:11:15.284Z,26.44
2022-10-18T17:13:43.586Z,26.34
2022-10-18T17:16:23.049Z,26.24
2022-10-18T17:18:51.781Z,26.17
2022-10-18T17:21:19.644Z,26.11
2022-10-18T17:23:46.856Z,26.00
2022-10-18T17:26:28.257Z,25.98
2022-10-18T17:28:58.641Z,25.94
2022-10-18T17:31:26.143Z,25.90
2022-10-18T17:33:54.631Z,25.86
2022-10-18T17:36:22.543Z,25.81
2022-10-18T17:38:51.278Z,25.79
2022-10-18T17:41:18.905Z,25.74
2022-10-18T17:43:45.944Z,25.68
2022-10-18T17:46:13.805Z,25.72
2022-10-18T17:48:41.303Z,25.69
2022-10-18T17:51:12.786Z,25.64
2022-10-18T17:53:40.028Z,25.64
2022-10-18T17:56:08.337Z,25.59
2022-10-18T17:58:36.103Z,25.57
2022-10-18T18:01:10.880Z,25.51
2022-10-18T18:03:38.861Z,25.45
2022-10-18T18:06:19.031Z,25.42
2022-10-18T18:08:46.981Z,25.35
2022-10-18T18:11:15.362Z,25.32
2022-10-18T18:13:42.722Z,25.29
2022-10-18T18:16:11.979Z,25.23
2022-10-18T18:18:39.201Z,25.21
2022-10-18T18:21:06.460Z,25.18
2022-10-18T18:23:35.041Z,25.21
2022-10-18T18:26:02.246Z,25.23
2022-10-18T18:28:29.416Z,25.21
2022-10-18T18:30:56.580Z,25.21
2022-10-18T18:33:23.840Z,25.23
2022-10-18T18:35:57.871Z,25.21
2022-10-18T18:38:25.683Z,25.27
2022-10-18T18:41:05.300Z,25.29
2022-10-18T18:43:33.282Z,25.32
2022-10-18T18:46:00.443Z,25.25
2022-10-18T18:48:28.160Z,25.24
2022-10-18T18:50:55.603Z,25.32
2022-10-18T18:53:25.999Z,25.35
2022-10-18T18:56:03.461Z,25.34
2022-10-18T18:58:30.608Z,25.31
2022-10-18T19:00:57.942Z,25.27
2022-10-18T19:03:25.281Z,25.22
2022-10-18T19:06:01.930Z,25.17
2022-10-18T19:08:29.274Z,25.10
2022-10-18T19:10:56.363Z,25.06
2022-10-18T19:13:25.000Z,25.03
2022-10-18T19:15:52.043Z,25.01
2022-10-18T19:18:23.188Z,24.98
2022-10-18T19:20:51.142Z,24.93
2022-10-18T19:23:18.240Z,24.92
2022-10-18T19:25:45.353Z,24.85
2022-10-18T19:28:12.406Z,24.78
2022-10-18T19:30:41.021Z,24.74
2022-10-18T19:33:08.202Z,24.73
2022-10-18T19:35:35.279Z,24.74
2022-10-18T19:38:02.360Z,24.74
2022-10-18T19:40:29.465Z,24.71
2022-10-18T19:42:56.560Z,24.69
2022-10-18T19:45:23.641Z,24.70
2022-10-18T19:47:52.133Z,24.64
2022-10-18T19:50:19.275Z,24.65
2022-10-18T19:52:46.420Z,24.68
2022-10-18T19:55:13.619Z,24.67
2022-10-18T19:57:40.707Z,24.71
2022-10-18T20:00:10.869Z,24.69
2022-10-18T20:02:38.582Z,24.71
2022-10-18T20:05:07.961Z,24.64
2022-10-18T20:07:35.200Z,24.62
2022-10-18T20:10:02.383Z,24.57
2022-10-18T20:12:29.701Z,24.52
2022-10-18T20:14:56.981Z,24.50
2022-10-18T20:17:24.100Z,24.49
2022-10-18T20:19:51.121Z,24.48
2022-10-18T20:22:19.601Z,24.45
2022-10-18T20:24:46.721Z,24.48
2022-10-18T20:27:13.830Z,24.47
2022-10-18T20:29:40.942Z,24.39
2022-10-18T20:32:08.383Z,24.39
2022-10-18T20:34:35.510Z,24.37
2022-10-18T20:37:02.942Z,24.36
2022-10-18T20:39:31.720Z,24.33
2022-10-18T20:41:59.202Z,24.31
2022-10-18T20:44:26.464Z,24.28
2022-10-18T20:46:53.482Z,24.24
2022-10-18T20:49:20.663Z,24.21
2022-10-18T20:51:47.802Z,24.20
2022-10-18T20:54:14.902Z,24.10
2022-10-18T20:56:43.582Z,24.04
2022-10-18T20:59:10.660Z,23.94
2022-10-18T21:01:40.119Z,23.91
2022-10-18T21:04:09.482Z,23.85
2022-10-18T21:06:39.753Z,23.80
2022-10-18T21:09:09.321Z,23.76
2022-10-18T21:11:38.839Z,23.72
2022-10-18T21:14:11.339Z,23.70
2022-10-18T21:16:38.720Z,23.69
2022-10-18T21:19:07.680Z,23.69
2022-10-18T21:21:35.461Z,23.67
2022-10-18T21:24:06.931Z,23.71
2022-10-18T21:26:36.683Z,23.71
2022-10-18T21:29:05.284Z,23.67
2022-10-18T21:31:36.357Z,23.70
2022-10-18T21:34:06.100Z,23.70
2022-10-18T21:36:37.222Z,23.67
2022-10-18T21:39:06.722Z,23.64
2022-10-18T21:41:35.081Z,23.65
2022-10-18T21:44:05.612Z,23.65
2022-10-18T21:46:37.566Z,23.64
2022-10-18T21:49:05.652Z,23.59
2022-10-18T21:51:32.900Z,23.56
2022-10-18T21:53:59.987Z,23.55
2022-10-18T21:56:29.060Z,23.55
2022-10-18T21:58:57.480Z,23.53
2022-10-18T22:01:27.338Z,23.50
2022-10-18T22:03:57.340Z,23.48
2022-10-18T22:06:26.145Z,23.46
2022-10-18T22:08:55.624Z,23.45
2022-10-18T22:11:26.408Z,23.42
2022-10-18T22:13:54.503Z,23.38
2022-10-18T22:16:22.020Z,23.36
2022-10-18T22:18:50.381Z,23.35
2022-10-18T22:21:20.359Z,23.31
2022-10-18T22:23:50.322Z,23.35
2022-10-18T22:26:21.502Z,23.33
2022-10-18T22:28:54.831Z,23.35
2022-10-18T22:31:24.583Z,23.39
2022-10-18T22:33:54.863Z,23.38
2022-10-18T22:36:24.360Z,23.34
2022-10-18T22:38:51.804Z,23.34
2022-10-18T22:41:19.673Z,23.27
2022-10-18T22:43:47.180Z,23.18
2022-10-18T22:46:15.459Z,23.16
2022-10-18T22:48:44.182Z,23.05
2022-10-18T22:51:12.361Z,22.99
2022-10-18T22:53:41.920Z,23.23
2022-10-18T22:56:11.763Z,23.14
2022-10-18T22:58:38.821Z,23.16
2022-10-18T23:01:08.482Z,23.10
2022-10-18T23:03:36.299Z,23.02
2022-10-18T23:06:05.345Z,23.04
2022-10-18T23:08:33.082Z,23.03
2022-10-18T23:11:01.600Z,23.04
2022-10-18T23:13:28.604Z,23.04
2022-10-18T23:16:04.413Z,23.05
2022-10-18T23:18:33.113Z,23.03
2022-10-18T23:21:04.564Z,22.99
2022-10-18T23:23:33.920Z,23.01
2022-10-18T23:26:04.079Z,22.97
2022-10-18T23:28:33.884Z,23.03
2022-10-18T23:31:06.367Z,22.98
2022-10-18T23:33:33.400Z,22.99
2022-10-18T23:36:00.557Z,22.94
2022-10-18T23:38:28.981Z,22.91
2022-10-18T23:40:56.481Z,23.00
2022-10-18T23:43:25.201Z,23.00
2022-10-18T23:45:52.752Z,22.95
2022-10-18T23:48:20.041Z,22.90
2022-10-18T23:50:47.901Z,22.87
2022-10-18T23:53:15.196Z,22.87
2022-10-18T23:55:52.860Z,22.79
2022-10-18T23:58:20.270Z,22.80
